createdAt,value
2023-02-14T00:00:48.867Z,11.45
2023-02-14T00:03:15.898Z,12.23
2023-02-14T00:05:42.530Z,12.13
2023-02-14T00:08:09.297Z,11.60
2023-02-14T00:10:35.909Z,11.87
2023-02-14T00:13:02.509Z,11.60
2023-02-14T00:15:29.664Z,11.20
2023-02-14T00:17:59.722Z,12.10
2023-02-14T00:20:27.799Z,10.77
2023-02-14T00:22:54.820Z,10.93
2023-02-14T00:25:21.546Z,11.27
2023-02-14T00:27:48.334Z,10.63
2023-02-14T00:30:15.444Z,9.50
2023-02-14T00:32:42.959Z,10.63
2023-02-14T00:35:10.544Z,10.43
2023-02-14T00:37:40.768Z,10.27
2023-02-14T00:40:08.004Z,9.87
2023-02-14T00:42:35.033Z,9.97
2023-02-14T00:45:01.625Z,10.20
2023-02-14T00:47:28.276Z,10.27
2023-02-14T00:49:54.940Z,11.30
2023-02-14T00:52:21.504Z,9.70
2023-02-14T00:54:48.170Z,9.97
2023-02-14T00:57:14.784Z,9.83
2023-02-14T00:59:41.426Z,10.47
2023-02-14T01:02:08.191Z,9.97
2023-02-14T01:04:35.114Z,10.73
2023-02-14T01:07:01.768Z,9.90
2023-02-14T01:09:28.384Z,10.70
2023-02-14T01:11:55.073Z,10.50
2023-02-14T01:14:21.720Z,10.57
2023-02-14T01:16:49.870Z,10.87
2023-02-14T01:19:16.830Z,11.20
2023-02-14T01:21:43.921Z,10.37
2023-02-14T01:24:12.854Z,10.70
2023-02-14T01:26:42.060Z,11.17
2023-02-14T01:29:09.386Z,10.50
2023-02-14T01:31:36.449Z,10.27
2023-02-14T01:34:04.353Z,10.90
2023-02-14T01:36:36.865Z,9.90
2023-02-14T01:39:11.279Z,10.85
2023-02-14T01:41:41.361Z,9.47
2023-02-14T01:44:28.407Z,10.10
2023-02-14T01:46:56.518Z,10.27
2023-02-14T01:49:35.720Z,10.43
2023-02-14T01:52:17.320Z,10.40
2023-02-14T01:54:52.112Z,10.30
2023-02-14T01:57:23.257Z,10.33
2023-02-14T02:00:17.429Z,10.33
2023-02-14T02:02:44.329Z,9.90
2023-02-14T02:05:11.930Z,10.23
2023-02-14T02:07:39.315Z,10.73
2023-02-14T02:10:06.933Z,10.60
2023-02-14T02:12:38.378Z,10.27
2023-02-14T02:15:06.451Z,10.10
2023-02-14T02:17:35.957Z,10.03
2023-02-14T02:21:00.572Z,9.70
2023-02-14T02:23:45.173Z,10.20
2023-02-14T02:26:41.812Z,10.00
2023-02-14T02:29:20.463Z,11.27
2023-02-14T02:32:11.237Z,9.93
2023-02-14T02:34:56.211Z,11.00
2023-02-14T02:37:49.064Z,10.50
2023-02-14T02:40:28.088Z,11.02
2023-02-14T02:43:32.141Z,9.80
2023-02-14T02:46:35.662Z,9.97
2023-02-14T02:49:40.254Z,10.50
2023-02-14T02:52:50.047Z,9.57
2023-02-14T02:55:26.457Z,9.87
2023-02-14T02:57:56.412Z,9.10
2023-02-14T03:00:25.181Z,10.07
2023-02-14T03:03:15.216Z,9.27
2023-02-14T03:05:43.258Z,9.97
2023-02-14T03:08:10.027Z,9.90
2023-02-14T03:10:39.336Z,9.73
2023-02-14T03:13:24.978Z,8.90
2023-02-14T03:15:56.018Z,8.90
2023-02-14T03:18:56.669Z,9.67
2023-02-14T03:21:41.984Z,10.00
2023-02-14T03:24:30.199Z,9.80
2023-02-14T03:27:21.874Z,9.97
2023-02-14T03:29:58.808Z,10.10
2023-02-14T03:32:46.333Z,9.67
2023-02-14T03:35:18.131Z,10.50
2023-02-14T03:38:13.649Z,11.55
2023-02-14T03:40:49.511Z,10.67
2023-02-14T03:43:24.699Z,10.57
2023-02-14T03:46:27.855Z,10.10
2023-02-14T03:48:58.394Z,10.77
2023-02-14T03:51:27.882Z,10.60
2023-02-14T03:53:58.048Z,10.73
2023-02-14T03:56:53.705Z,10.30
2023-02-14T03:59:23.677Z,10.20
2023-02-14T04:01:53.324Z,10.90
2023-02-14T04:04:22.865Z,10.97
2023-02-14T04:06:49.789Z,10.63
2023-02-14T04:09:16.525Z,11.20
2023-02-14T04:11:43.598Z,10.70
2023-02-14T04:14:10.354Z,10.43
2023-02-14T04:16:56.909Z,10.37
2023-02-14T04:19:23.707Z,10.10
2023-02-14T04:21:51.916Z,10.10
2023-02-14T04:24:19.390Z,10.93
2023-02-14T04:27:10.640Z,10.27
2023-02-14T04:29:44.103Z,11.03
2023-02-14T04:32:13.951Z,10.20
2023-02-14T04:34:41.217Z,10.93
2023-02-14T04:37:08.997Z,10.53
2023-02-14T04:39:35.986Z,10.33
2023-02-14T04:42:03.563Z,10.03
2023-02-14T04:44:30.318Z,11.47
2023-02-14T04:46:57.474Z,11.33
2023-02-14T04:49:24.056Z,10.90
2023-02-14T04:51:50.727Z,10.37
2023-02-14T04:54:17.372Z,10.90
2023-02-14T04:56:44.192Z,10.97
2023-02-14T04:59:10.962Z,10.50
2023-02-14T05:01:37.767Z,9.93
2023-02-14T05:04:04.519Z,10.30
2023-02-14T05:06:31.561Z,11.17
2023-02-14T05:08:58.882Z,12.00
2023-02-14T05:11:25.533Z,11.80
2023-02-14T05:13:52.402Z,11.50
2023-02-14T05:16:19.299Z,12.60
2023-02-14T05:18:46.088Z,11.70
2023-02-14T05:21:13.613Z,11.10
2023-02-14T05:23:40.395Z,12.40
2023-02-14T05:26:07.783Z,12.30
2023-02-14T05:28:34.486Z,11.33
2023-02-14T05:31:01.822Z,11.37
2023-02-14T05:33:28.751Z,10.87
2023-02-14T05:35:55.332Z,11.40
2023-02-14T05:38:22.068Z,10.67
2023-02-14T05:40:48.668Z,11.43
2023-02-14T05:43:15.303Z,10.50
2023-02-14T05:45:42.016Z,10.87
2023-02-14T05:48:08.792Z,12.13
2023-02-14T05:50:35.401Z,11.90
2023-02-14T05:53:02.085Z,11.10
2023-02-14T05:55:28.766Z,11.43
2023-02-14T05:57:55.344Z,11.30
2023-02-14T06:00:23.978Z,11.27
2023-02-14T06:02:51.046Z,11.67
2023-02-14T06:05:18.341Z,11.37
2023-02-14T06:07:50.472Z,11.73
2023-02-14T06:10:18.688Z,11.47
2023-02-14T06:12:45.948Z,12.57
2023-02-14T06:15:12.821Z,12.53
2023-02-14T06:17:39.419Z,13.17
2023-02-14T06:20:09.474Z,14.00
2023-02-14T06:22:37.655Z,12.57
2023-02-14T06:25:05.259Z,13.00
2023-02-14T06:27:33.162Z,13.80
2023-02-14T06:30:00.539Z,13.93
2023-02-14T06:32:27.322Z,13.40
2023-02-14T06:34:53.990Z,12.10
2023-02-14T06:37:20.853Z,13.57
2023-02-14T06:39:47.634Z,14.00
2023-02-14T06:42:14.294Z,13.10
2023-02-14T06:44:41.298Z,14.57
2023-02-14T06:47:08.588Z,18.37
2023-02-14T06:49:35.273Z,16.83
2023-02-14T06:52:02.268Z,14.27
2023-02-14T06:54:28.846Z,12.97
2023-02-14T06:56:55.428Z,11.93
2023-02-14T06:59:22.764Z,12.55
2023-02-14T07:01:49.525Z,12.90
2023-02-14T07:04:17.832Z,12.05
2023-02-14T07:06:48.236Z,12.00
2023-02-14T07:09:17.858Z,13.93
2023-02-14T07:11:45.355Z,15.03
2023-02-14T07:14:13.129Z,16.50
2023-02-14T07:16:39.818Z,15.30
2023-02-14T07:19:06.432Z,17.53
2023-02-14T07:21:33.327Z,16.73
2023-02-14T07:23:59.975Z,15.77
2023-02-14T07:26:26.619Z,14.87
2023-02-14T07:28:53.361Z,15.05
2023-02-14T07:31:21.016Z,15.70
2023-02-14T07:33:47.929Z,14.32
2023-02-14T07:36:14.514Z,13.23
2023-02-14T07:38:41.120Z,14.07
2023-02-14T07:41:08.280Z,13.38
2023-02-14T07:43:34.873Z,12.93
2023-02-14T07:46:03.437Z,12.13
2023-02-14T07:48:32.485Z,12.13
2023-02-14T07:51:00.682Z,12.55
2023-02-14T07:53:27.529Z,12.00
2023-02-14T07:55:54.238Z,12.35
2023-02-14T07:58:20.963Z,10.82
2023-02-14T08:00:47.690Z,11.10
2023-02-14T08:03:15.460Z,11.40
2023-02-14T08:05:42.097Z,11.70
2023-02-14T08:08:09.146Z,11.77
2023-02-14T08:10:35.736Z,12.40
2023-02-14T08:13:03.616Z,10.60
2023-02-14T08:15:53.684Z,10.95
2023-02-14T08:18:23.237Z,10.10
2023-02-14T08:20:50.218Z,10.48
2023-02-14T08:23:18.917Z,11.10
2023-02-14T08:25:45.878Z,9.95
2023-02-14T08:28:13.945Z,10.25
2023-02-14T08:30:41.061Z,11.43
2023-02-14T08:33:08.153Z,10.75
2023-02-14T08:35:35.735Z,10.95
2023-02-14T08:38:02.638Z,11.65
2023-02-14T08:40:29.509Z,10.73
2023-02-14T08:42:56.129Z,10.35
2023-02-14T08:45:23.125Z,11.27
2023-02-14T08:47:49.756Z,10.80
2023-02-14T08:50:18.314Z,11.45
2023-02-14T08:52:45.165Z,11.00
2023-02-14T08:55:13.836Z,10.70
2023-02-14T08:57:40.751Z,10.77
2023-02-14T09:00:09.896Z,10.15
2023-02-14T09:02:36.668Z,11.07
2023-02-14T09:05:03.952Z,11.90
2023-02-14T09:07:30.621Z,12.10
2023-02-14T09:09:57.346Z,11.65
2023-02-14T09:12:24.203Z,12.35
2023-02-14T09:14:50.770Z,11.57
2023-02-14T09:17:18.007Z,12.57
2023-02-14T09:19:44.775Z,13.15
2023-02-14T09:22:11.662Z,12.57
2023-02-14T09:24:39.915Z,12.38
2023-02-14T09:27:07.460Z,11.60
2023-02-14T09:29:34.356Z,11.25
2023-02-14T09:32:02.154Z,12.02
2023-02-14T09:34:48.324Z,11.98
2023-02-14T09:37:34.872Z,10.85
2023-02-14T09:40:01.481Z,10.57
2023-02-14T09:42:53.476Z,9.80
2023-02-14T09:45:26.496Z,10.37
2023-02-14T09:48:30.961Z,10.48
2023-02-14T09:51:03.675Z,10.60
2023-02-14T09:53:35.940Z,9.65
2023-02-14T09:56:14.562Z,10.13
2023-02-14T09:58:53.756Z,10.20
2023-02-14T10:01:32.891Z,9.18
2023-02-14T10:04:21.336Z,9.88
2023-02-14T10:07:10.314Z,9.40
2023-02-14T10:09:54.457Z,9.45
2023-02-14T10:12:31.684Z,9.10
2023-02-14T10:15:02.112Z,9.68
2023-02-14T10:17:40.473Z,9.95
2023-02-14T10:20:27.193Z,9.75
2023-02-14T10:23:05.488Z,10.05
2023-02-14T10:25:42.695Z,10.27
2023-02-14T10:28:16.456Z,11.00
2023-02-14T10:30:55.199Z,9.70
2023-02-14T10:33:28.606Z,10.05
2023-02-14T10:36:08.835Z,9.95
2023-02-14T10:38:55.831Z,9.50
2023-02-14T10:41:25.049Z,9.88
2023-02-14T10:44:12.808Z,10.55
2023-02-14T10:46:59.164Z,9.52
2023-02-14T10:49:25.684Z,9.68
2023-02-14T10:52:16.130Z,10.65
2023-02-14T10:54:46.361Z,10.23
2023-02-14T10:57:21.052Z,10.88
2023-02-14T11:00:06.848Z,10.65
2023-02-14T11:02:41.312Z,10.68
2023-02-14T11:05:14.489Z,10.77
2023-02-14T11:07:44.428Z,10.00
2023-02-14T11:10:14.956Z,10.27
2023-02-14T11:12:42.034Z,10.10
2023-02-14T11:15:33.784Z,10.68
2023-02-14T11:18:25.514Z,10.17
2023-02-14T11:21:04.190Z,10.17
2023-02-14T11:23:39.060Z,9.60
2023-02-14T11:26:11.762Z,10.77
2023-02-14T11:28:48.880Z,10.82
2023-02-14T11:31:25.401Z,10.55
2023-02-14T11:33:54.363Z,10.88
2023-02-14T11:36:21.584Z,11.02
2023-02-14T11:39:03.773Z,10.70
2023-02-14T11:41:47.776Z,11.32
2023-02-14T11:44:22.636Z,10.95
2023-02-14T11:46:54.637Z,11.45
2023-02-14T11:49:35.286Z,11.02
2023-02-14T11:52:10.613Z,11.38
2023-02-14T11:54:40.888Z,11.02
2023-02-14T11:57:28.984Z,11.23
2023-02-14T11:59:57.885Z,11.00
2023-02-14T12:02:39.782Z,11.15
2023-02-14T12:05:20.811Z,10.90
2023-02-14T12:07:51.687Z,10.55
2023-02-14T12:10:25.246Z,11.18
2023-02-14T12:12:54.667Z,10.68
2023-02-14T12:15:44.132Z,11.60
2023-02-14T12:18:35.441Z,10.40
2023-02-14T12:21:26.033Z,10.90
2023-02-14T12:24:20.373Z,11.93
2023-02-14T12:26:55.289Z,10.95
2023-02-14T12:29:29.071Z,11.25
2023-02-14T12:32:00.896Z,12.05
2023-02-14T12:34:27.733Z,10.77
2023-02-14T12:37:06.413Z,10.52
2023-02-14T12:39:49.005Z,11.20
2023-02-14T12:42:32.815Z,11.52
2023-02-14T12:45:15.886Z,11.05
2023-02-14T12:48:24.580Z,11.20
2023-02-14T12:51:02.849Z,11.77
2023-02-14T12:53:35.264Z,10.88
2023-02-14T12:56:26.481Z,10.50
2023-02-14T12:58:58.771Z,10.93
2023-02-14T13:04:42.120Z,9.73
2023-02-14T13:07:38.308Z,10.20
2023-02-14T13:10:38.660Z,10.57
2023-02-14T13:13:29.987Z,11.35
2023-02-14T13:16:02.461Z,10.40
2023-02-14T13:18:44.574Z,10.65
2023-02-14T13:21:15.783Z,10.35
2023-02-14T13:23:47.170Z,10.38
2023-02-14T13:26:25.005Z,10.37
2023-02-14T13:28:59.547Z,10.30
2023-02-14T13:31:26.450Z,9.60
2023-02-14T13:34:09.240Z,10.88
2023-02-14T13:36:37.526Z,8.88
2023-02-14T13:39:04.893Z,10.80
2023-02-14T13:41:31.772Z,10.05
2023-02-14T13:44:03.093Z,11.32
2023-02-14T13:46:32.739Z,9.77
2023-02-14T13:49:27.049Z,10.18
2023-02-14T13:51:57.258Z,10.18
2023-02-14T13:54:45.761Z,10.50
2023-02-14T13:57:34.129Z,9.57
2023-02-14T14:00:19.377Z,11.00
2023-02-14T14:02:49.018Z,11.07
2023-02-14T14:05:30.766Z,10.93
2023-02-14T14:08:20.333Z,10.67
2023-02-14T14:10:55.798Z,10.60
2023-02-14T14:13:40.669Z,11.65
2023-02-14T14:16:19.592Z,11.23
2023-02-14T14:18:46.494Z,10.18
2023-02-14T14:21:33.764Z,10.73
2023-02-14T14:24:13.991Z,10.50
2023-02-14T14:26:45.575Z,10.68
2023-02-14T14:29:34.666Z,10.97
2023-02-14T14:32:21.580Z,10.00
2023-02-14T14:34:52.170Z,10.38
2023-02-14T14:37:22.217Z,10.85
2023-02-14T14:39:55.593Z,9.90
2023-02-14T14:42:25.674Z,10.95
2023-02-14T14:44:59.268Z,10.80
2023-02-14T14:47:29.600Z,10.98
2023-02-14T14:50:07.702Z,10.57
2023-02-14T14:52:38.513Z,10.80
2023-02-14T14:55:09.304Z,11.07
2023-02-14T14:57:40.189Z,11.23
2023-02-14T15:00:22.724Z,11.50
2023-02-14T15:02:57.659Z,10.15
2023-02-14T15:05:33.891Z,11.95
2023-02-14T15:08:32.764Z,11.20
2023-02-14T15:11:38.648Z,10.85
2023-02-14T15:14:09.063Z,10.80
2023-02-14T15:16:46.372Z,11.88
2023-02-14T15:19:22.170Z,10.77
2023-02-14T15:21:49.905Z,10.68
2023-02-14T15:24:18.927Z,11.15
2023-02-14T15:26:48.203Z,10.25
2023-02-14T15:29:27.133Z,10.10
2023-02-14T15:31:56.566Z,10.40
2023-02-14T15:34:32.659Z,10.10
2023-02-14T15:37:06.131Z,10.30
2023-02-14T15:39:37.315Z,10.75
2023-02-14T15:42:05.971Z,10.68
2023-02-14T15:44:33.032Z,10.43
2023-02-14T15:47:03.846Z,10.25
2023-02-14T15:49:35.823Z,9.75
2023-02-14T15:52:05.053Z,10.57
2023-02-14T15:54:37.937Z,10.25
2023-02-14T15:57:06.576Z,10.80
2023-02-14T15:59:35.518Z,11.35
2023-02-14T16:02:28.573Z,10.70
2023-02-14T16:05:02.138Z,11.15
2023-02-14T16:07:30.020Z,11.18
2023-02-14T16:10:27.421Z,11.77
2023-02-14T16:13:03.370Z,11.90
2023-02-14T16:15:35.426Z,12.40
2023-02-14T16:18:08.151Z,12.47
2023-02-14T16:20:45.504Z,12.80
2023-02-14T16:23:24.264Z,12.50
2023-02-14T16:25:51.675Z,11.30
2023-02-14T16:28:18.847Z,10.85
2023-02-14T16:30:48.501Z,10.02
2023-02-14T16:33:27.737Z,11.00
2023-02-14T16:35:57.474Z,9.77
2023-02-14T16:38:24.562Z,10.45
2023-02-14T16:40:54.456Z,10.52
2023-02-14T16:43:21.603Z,11.48
2023-02-14T16:45:48.788Z,11.02
2023-02-14T16:48:16.087Z,11.75
2023-02-14T16:50:44.163Z,12.75
2023-02-14T16:53:22.899Z,13.70
2023-02-14T16:55:51.022Z,12.75
2023-02-14T16:58:19.543Z,13.25
2023-02-14T17:00:46.360Z,14.75
2023-02-14T17:03:13.430Z,14.65
2023-02-14T17:05:41.122Z,12.90
2023-02-14T17:08:11.142Z,13.32
2023-02-14T17:10:39.480Z,13.60
2023-02-14T17:13:07.071Z,13.23
2023-02-14T17:15:34.108Z,13.50
2023-02-14T17:18:04.953Z,13.00
2023-02-14T17:20:31.662Z,12.45
2023-02-14T17:22:58.352Z,13.77
2023-02-14T17:25:26.156Z,14.25
2023-02-14T17:27:52.836Z,13.18
2023-02-14T17:30:19.829Z,13.43
2023-02-14T17:32:46.608Z,13.98
2023-02-14T17:35:14.548Z,14.45
2023-02-14T17:37:41.748Z,13.85
2023-02-14T17:40:09.288Z,13.25
2023-02-14T17:42:36.377Z,13.43
2023-02-14T17:45:06.146Z,14.00
2023-02-14T17:47:34.303Z,12.95
2023-02-14T17:50:03.465Z,14.80
2023-02-14T17:52:30.877Z,13.18
2023-02-14T17:54:57.540Z,15.05
2023-02-14T17:57:28.795Z,14.48
2023-02-14T18:00:06.693Z,14.55
2023-02-14T18:02:39.815Z,15.55
2023-02-14T18:05:07.893Z,14.88
2023-02-14T18:07:34.645Z,15.32
2023-02-14T18:10:01.375Z,14.52
2023-02-14T18:12:27.999Z,15.90
2023-02-14T18:14:56.477Z,15.88
2023-02-14T18:17:24.048Z,16.88
2023-02-14T18:19:51.896Z,14.57
2023-02-14T18:22:19.165Z,13.02
2023-02-14T18:24:46.663Z,14.15
2023-02-14T18:27:16.513Z,14.00
2023-02-14T18:29:43.369Z,11.82
2023-02-14T18:32:10.841Z,12.75
2023-02-14T18:34:38.675Z,12.77
2023-02-14T18:37:06.306Z,12.70
2023-02-14T18:39:33.466Z,12.57
2023-02-14T18:42:01.581Z,12.50
2023-02-14T18:44:29.268Z,12.82
2023-02-14T18:46:56.922Z,11.75
2023-02-14T18:49:23.836Z,12.70
2023-02-14T18:51:50.924Z,12.38
2023-02-14T18:54:18.176Z,11.77
2023-02-14T18:56:45.447Z,11.88
2023-02-14T18:59:13.507Z,12.73
2023-02-14T19:01:44.991Z,12.57
2023-02-14T19:04:12.946Z,14.73
2023-02-14T19:06:42.299Z,14.82
2023-02-14T19:09:14.917Z,15.27
2023-02-14T19:11:42.379Z,14.90
2023-02-14T19:14:10.798Z,15.07
2023-02-14T19:16:44.405Z,15.52
2023-02-14T19:19:12.252Z,13.70
2023-02-14T19:21:39.664Z,14.15
2023-02-14T19:24:07.307Z,14.15
2023-02-14T19:26:40.303Z,14.73
2023-02-14T19:29:13.502Z,15.27
2023-02-14T19:31:43.307Z,17.17
2023-02-14T19:34:20.477Z,16.88
2023-02-14T19:36:49.082Z,16.23
2023-02-14T19:39:17.241Z,18.45
2023-02-14T19:41:44.961Z,18.85
2023-02-14T19:44:14.408Z,19.10
2023-02-14T19:46:43.338Z,20.40
2023-02-14T19:49:16.441Z,18.63
2023-02-14T19:51:44.541Z,18.55
2023-02-14T19:54:12.843Z,17.25
2023-02-14T19:56:43.312Z,19.88
2023-02-14T19:59:16.600Z,19.23
2023-02-14T20:01:52.318Z,18.92
2023-02-14T20:04:26.131Z,19.33
2023-02-14T20:06:55.072Z,20.13
2023-02-14T20:09:23.750Z,20.58
2023-02-14T20:11:54.964Z,19.35
2023-02-14T20:14:31.457Z,21.08
2023-02-14T20:17:02.191Z,18.73
2023-02-14T20:19:32.839Z,18.67
2023-02-14T20:22:00.105Z,19.52
2023-02-14T20:24:30.054Z,19.92
2023-02-14T20:26:57.818Z,20.63
2023-02-14T20:29:26.722Z,19.17
2023-02-14T20:31:57.929Z,19.73
2023-02-14T20:34:24.736Z,19.30
2023-02-14T20:36:56.141Z,19.60
2023-02-14T20:39:28.939Z,20.63
2023-02-14T20:41:55.888Z,20.10
2023-02-14T20:44:23.134Z,20.50
2023-02-14T20:46:52.722Z,19.70
2023-02-14T20:49:24.756Z,20.67
2023-02-14T20:51:53.272Z,20.17
2023-02-14T20:54:21.958Z,21.73
2023-02-14T20:56:50.641Z,20.25
2023-02-14T20:59:19.329Z,20.02
2023-02-14T21:01:46.357Z,20.88
2023-02-14T21:04:14.090Z,20.10
2023-02-14T21:06:41.112Z,20.58
2023-02-14T21:09:08.683Z,19.15
2023-02-14T21:11:35.557Z,19.42
2023-02-14T21:14:03.009Z,20.67
2023-02-14T21:16:30.301Z,19.70
2023-02-14T21:18:59.471Z,20.30
2023-02-14T21:21:32.442Z,20.70
2023-02-14T21:26:27.405Z,21.85
2023-02-14T21:28:54.375Z,21.55
2023-02-14T21:31:21.877Z,22.98
2023-02-14T21:33:53.848Z,21.65
2023-02-14T21:36:22.432Z,22.05
2023-02-14T21:38:49.303Z,22.52
2023-02-14T21:41:19.202Z,20.88
2023-02-14T21:43:47.947Z,20.27
2023-02-14T21:46:17.004Z,21.40
2023-02-14T21:49:03.413Z,21.83
2023-02-14T21:51:31.434Z,23.05
2023-02-14T21:54:01.772Z,25.45
2023-02-14T21:56:28.557Z,23.38
2023-02-14T21:58:55.779Z,19.70
2023-02-14T22:01:28.631Z,19.02
2023-02-14T22:03:55.826Z,19.15
2023-02-14T22:06:23.557Z,20.02
2023-02-14T22:08:58.351Z,19.30
2023-02-14T22:11:27.917Z,21.10
2023-02-14T22:13:55.889Z,22.33
2023-02-14T22:16:23.790Z,22.42
2023-02-14T22:18:51.153Z,23.45
2023-02-14T22:21:21.559Z,22.33
2023-02-14T22:23:48.556Z,22.05
2023-02-14T22:26:23.895Z,18.98
2023-02-14T22:28:53.915Z,19.00
2023-02-14T22:31:20.898Z,18.88
2023-02-14T22:33:48.786Z,18.25
2023-02-14T22:36:15.845Z,17.42
2023-02-14T22:38:42.829Z,17.13
2023-02-14T22:41:17.647Z,17.27
2023-02-14T22:43:45.109Z,17.25
2023-02-14T22:46:14.812Z,17.85
2023-02-14T22:48:41.691Z,17.77
2023-02-14T22:51:12.493Z,16.92
2023-02-14T22:53:39.441Z,19.70
2023-02-14T22:56:21.110Z,18.30
2023-02-14T22:58:47.706Z,21.20
2023-02-14T23:01:16.388Z,28.27
2023-02-14T23:03:44.031Z,24.73
2023-02-14T23:06:11.242Z,24.75
2023-02-14T23:08:46.209Z,23.15
2023-02-14T23:11:15.752Z,20.50
2023-02-14T23:14:01.165Z,20.02
2023-02-14T23:16:46.637Z,20.15
2023-02-14T23:19:34.629Z,19.15
2023-02-14T23:22:10.312Z,18.90
2023-02-14T23:24:37.948Z,19.00
2023-02-14T23:27:05.605Z,18.92
2023-02-14T23:29:32.702Z,19.08
2023-02-14T23:31:59.400Z,18.85
2023-02-14T23:34:28.681Z,18.20
2023-02-14T23:36:55.357Z,19.02
2023-02-14T23:39:22.198Z,19.88
2023-02-14T23:41:49.171Z,23.67
2023-02-14T23:44:20.351Z,24.70
2023-02-14T23:46:48.818Z,25.88
2023-02-14T23:49:16.485Z,22.85
2023-02-14T23:51:44.911Z,19.98
2023-02-14T23:54:12.477Z,19.15
2023-02-14T23:56:39.948Z,18.02
2023-02-14T23:59:08.012Z,17.63
